Time;durP1;ratioP1;P1;durP2;ratioP2;P2;SDS_P1;SDS_P2;PMS_P1;PMS_P2;Temp;Humidity;BMP_temperature;BMP_pressure;BME280_temperature;BME280_humidity;BME280_pressure;Samples;Min_cycle;Max_cycle;Signal;HPM_P1;HPM_P2
2021/08/14 00:01:13;;;;;;;14.95;5.88;;;;;;;;;;5110540;27;20047;-68
2021/08/14 00:03:39;;;;;;;22.10;5.97;;;;;;;;;;5117587;27;20031;-68
2021/08/14 00:06:06;;;;;;;18.50;5.82;;;;;;;;;;5109209;27;20114;-68
2021/08/14 00:08:33;;;;;;;21.75;6.70;;;;;;;;;;5120159;27;20075;-68
2021/08/14 00:10:59;;;;;;;20.50;6.00;;;;;;;;;;5079997;28;20506;-68
2021/08/14 00:13:25;;;;;;;18.88;6.75;;;;;;;;;;5114876;27;20110;-68
2021/08/14 00:15:51;;;;;;;15.55;6.45;;;;;;;;;;5112833;27;20043;-68
2021/08/14 00:18:17;;;;;;;16.23;6.22;;;;;;;;;;5117316;27;20073;-68
2021/08/14 00:20:43;;;;;;;14.95;6.10;;;;;;;;;;5108329;27;20399;-68
2021/08/14 00:23:10;;;;;;;19.40;6.65;;;;;;;;;;5113408;27;20040;-68
2021/08/14 00:25:36;;;;;;;19.20;5.97;;;;;;;;;;5118284;27;20039;-68
2021/08/14 00:28:02;;;;;;;18.95;6.30;;;;;;;;;;5107938;27;20043;-68
2021/08/14 00:30:28;;;;;;;15.07;5.72;;;;;;;;;;5094772;27;20059;-68
2021/08/14 00:32:54;;;;;;;16.83;6.53;;;;;;;;;;5110366;27;20109;-68
2021/08/14 00:35:20;;;;;;;15.10;5.95;;;;;;;;;;5117876;27;20637;-68
2021/08/14 00:37:47;;;;;;;15.07;5.93;;;;;;;;;;5106260;27;20046;-68
2021/08/14 00:40:13;;;;;;;15.45;5.68;;;;;;;;;;5114073;27;20061;-68
2021/08/14 00:42:40;;;;;;;12.77;5.07;;;;;;;;;;5110502;27;20089;-68
2021/08/14 00:45:06;;;;;;;17.13;5.35;;;;;;;;;;5119131;27;20479;-68
2021/08/14 00:47:32;;;;;;;16.27;5.45;;;;;;;;;;5101941;27;20122;-68
2021/08/14 00:49:58;;;;;;;15.20;6.22;;;;;;;;;;5119672;27;20054;-68
2021/08/14 00:52:25;;;;;;;16.63;5.25;;;;;;;;;;5113718;27;20046;-68
2021/08/14 00:54:51;;;;;;;14.30;5.63;;;;;;;;;;5112578;27;20039;-68
2021/08/14 00:57:17;;;;;;;14.60;5.22;;;;;;;;;;5104743;27;20031;-68
2021/08/14 00:59:48;;;;;;;17.38;5.70;;;;;;;;;;5119654;27;20145;-68
2021/08/14 01:02:15;;;;;;;17.30;5.43;;;;;;;;;;5116401;27;20452;-68
2021/08/14 01:04:42;;;;;;;17.98;5.05;;;;;;;;;;5109312;27;20237;-68
2021/08/14 01:07:08;;;;;;;13.73;5.53;;;;;;;;;;5114004;27;20111;-68
2021/08/14 01:09:34;;;;;;;14.02;4.85;;;;;;;;;;5111914;27;20455;-68
2021/08/14 01:12:04;;;;;;;14.70;5.35;;;;;;;;;;5117900;27;20043;-68
2021/08/14 01:14:32;;;;;;;14.57;5.30;;;;;;;;;;5103957;27;20115;-68
2021/08/14 01:16:58;;;;;;;13.23;5.30;;;;;;;;;;5118121;27;20102;-68
2021/08/14 01:19:25;;;;;;;14.27;5.07;;;;;;;;;;5113280;27;20036;-68
2021/08/14 01:21:51;;;;;;;14.65;5.25;;;;;;;;;;5112351;27;20027;-68
2021/08/14 01:24:17;;;;;;;20.95;6.07;;;;;;;;;;5105251;27;20028;-68
2021/08/14 01:26:44;;;;;;;13.55;5.38;;;;;;;;;;5114932;27;20448;-68
2021/08/14 01:29:10;;;;;;;17.75;5.57;;;;;;;;;;5111056;27;20432;-68
2021/08/14 01:31:36;;;;;;;14.90;4.72;;;;;;;;;;5106574;27;20028;-68
2021/08/14 01:34:02;;;;;;;17.00;5.75;;;;;;;;;;5109861;27;20455;-68
2021/08/14 01:36:28;;;;;;;14.25;4.78;;;;;;;;;;5117260;27;20050;-68
2021/08/14 01:38:56;;;;;;;17.10;5.40;;;;;;;;;;5105138;27;20031;-68
2021/08/14 01:41:22;;;;;;;14.93;5.97;;;;;;;;;;5110980;27;20446;-68
2021/08/14 01:43:56;;;;;;;17.80;5.68;;;;;;;;;;5113117;27;20161;-68
2021/08/14 01:46:23;;;;;;;20.40;6.00;;;;;;;;;;5114692;27;20312;-68
2021/08/14 01:48:50;;;;;;;16.80;5.18;;;;;;;;;;5113299;27;20039;-68
2021/08/14 01:51:16;;;;;;;19.05;5.40;;;;;;;;;;5105460;27;20505;-68
2021/08/14 01:53:48;;;;;;;10.80;4.85;;;;;;;;;;5095186;28;20358;-68
2021/08/14 01:56:15;;;;;;;15.70;5.70;;;;;;;;;;5107155;27;20555;-68
2021/08/14 01:58:41;;;;;;;18.08;5.88;;;;;;;;;;5110811;27;20441;-68
2021/08/14 02:01:07;;;;;;;18.42;6.43;;;;;;;;;;5104119;27;20637;-68
2021/08/14 02:03:34;;;;;;;16.83;5.30;;;;;;;;;;5114212;27;20404;-68
2021/08/14 02:06:02;;;;;;;17.42;5.38;;;;;;;;;;5087841;27;20058;-68
2021/08/14 02:08:28;;;;;;;14.50;5.43;;;;;;;;;;5109457;27;20078;-68
2021/08/14 02:10:54;;;;;;;13.10;5.18;;;;;;;;;;5107927;27;20092;-68
2021/08/14 02:13:20;;;;;;;18.73;6.15;;;;;;;;;;5118833;27;20110;-68
2021/08/14 02:15:46;;;;;;;19.67;5.97;;;;;;;;;;5105462;27;20506;-68
2021/08/14 02:18:12;;;;;;;17.50;5.88;;;;;;;;;;5112566;27;20162;-68
2021/08/14 02:20:38;;;;;;;18.00;6.28;;;;;;;;;;5110736;27;20575;-68
2021/08/14 02:23:05;;;;;;;17.05;6.75;;;;;;;;;;5115280;27;20119;-68
2021/08/14 02:25:31;;;;;;;17.42;5.47;;;;;;;;;;5105670;28;20440;-68
2021/08/14 02:27:57;;;;;;;16.60;5.78;;;;;;;;;;5108250;27;20109;-68
2021/08/14 02:30:23;;;;;;;20.35;6.22;;;;;;;;;;5118983;28;20096;-68
2021/08/14 02:32:49;;;;;;;14.40;5.70;;;;;;;;;;5107119;28;20182;-68
2021/08/14 02:35:16;;;;;;;22.83;6.88;;;;;;;;;;5113047;28;20035;-68
2021/08/14 02:37:42;;;;;;;16.88;5.72;;;;;;;;;;5106970;28;20035;-68
2021/08/14 02:40:09;;;;;;;17.52;6.07;;;;;;;;;;5116832;28;20043;-68
2021/08/14 02:42:41;;;;;;;16.40;6.45;;;;;;;;;;5101508;28;20402;-68
2021/08/14 02:45:08;;;;;;;14.85;5.70;;;;;;;;;;5112279;28;20056;-68
2021/08/14 02:47:34;;;;;;;21.70;6.22;;;;;;;;;;5104585;28;20040;-68
2021/08/14 02:50:00;;;;;;;16.40;6.13;;;;;;;;;;5112688;28;20096;-68
2021/08/14 02:52:26;;;;;;;17.63;6.10;;;;;;;;;;5102343;28;20505;-68
2021/08/14 02:54:52;;;;;;;17.60;5.60;;;;;;;;;;5115620;28;20051;-68
2021/08/14 02:57:18;;;;;;;16.33;6.43;;;;;;;;;;5111715;28;20032;-68
2021/08/14 02:59:45;;;;;;;17.70;5.65;;;;;;;;;;5111914;28;20154;-68
2021/08/14 03:02:11;;;;;;;20.40;6.82;;;;;;;;;;5106207;28;20126;-68
2021/08/14 03:04:37;;;;;;;15.02;6.25;;;;;;;;;;5113485;28;20047;-68
2021/08/14 03:07:04;;;;;;;23.15;6.38;;;;;;;;;;5113752;28;20035;-68
2021/08/14 03:09:32;;;;;;;20.38;5.93;;;;;;;;;;5087667;28;20082;-68
2021/08/14 03:11:58;;;;;;;19.73;6.35;;;;;;;;;;5111747;28;20046;-68
2021/08/14 03:14:25;;;;;;;17.35;6.50;;;;;;;;;;5105124;28;20086;-68
2021/08/14 03:16:51;;;;;;;21.20;5.90;;;;;;;;;;5120121;27;20054;-68
2021/08/14 03:19:17;;;;;;;16.20;6.60;;;;;;;;;;5110557;27;20031;-68
2021/08/14 03:21:44;;;;;;;18.08;6.38;;;;;;;;;;5117695;27;20122;-68
2021/08/14 03:24:10;;;;;;;17.02;6.70;;;;;;;;;;5111525;27;20043;-68
2021/08/14 03:26:36;;;;;;;15.00;6.32;;;;;;;;;;5115825;27;20114;-68
2021/08/14 03:29:02;;;;;;;16.90;5.97;;;;;;;;;;5106971;27;20206;-68
2021/08/14 03:31:28;;;;;;;19.92;6.78;;;;;;;;;;5118751;27;20039;-68
2021/08/14 03:33:54;;;;;;;17.05;6.75;;;;;;;;;;5114069;27;20441;-68
2021/08/14 03:36:21;;;;;;;22.60;7.50;;;;;;;;;;5114373;27;20039;-68
2021/08/14 03:38:47;;;;;;;15.90;6.63;;;;;;;;;;5110660;27;20039;-68
2021/08/14 03:41:13;;;;;;;16.00;6.32;;;;;;;;;;5118410;27;20463;-68
2021/08/14 03:43:39;;;;;;;17.25;6.80;;;;;;;;;;5110944;27;20031;-68
2021/08/14 03:46:05;;;;;;;18.08;6.40;;;;;;;;;;5108728;27;20434;-68
2021/08/14 03:48:36;;;;;;;21.00;7.47;;;;;;;;;;5118787;27;20039;-68
2021/08/14 03:51:02;;;;;;;18.10;6.88;;;;;;;;;;5110082;27;20035;-68
2021/08/14 03:53:28;;;;;;;18.08;6.50;;;;;;;;;;5101383;27;20106;-68
2021/08/14 03:55:54;;;;;;;16.60;6.68;;;;;;;;;;5107943;27;20166;-68
2021/08/14 03:58:20;;;;;;;14.93;6.68;;;;;;;;;;5120505;27;20027;-68
2021/08/14 04:00:46;;;;;;;18.75;6.82;;;;;;;;;;5112757;27;20039;-69
2021/08/14 04:03:13;;;;;;;22.42;7.43;;;;;;;;;;5117278;27;20057;-69
2021/08/14 04:05:39;;;;;;;23.30;7.10;;;;;;;;;;5107283;27;20051;-68
2021/08/14 04:08:05;;;;;;;20.08;7.78;;;;;;;;;;5119623;27;20031;-68
2021/08/14 04:10:31;;;;;;;20.02;6.68;;;;;;;;;;5102796;27;20043;-68
2021/08/14 04:12:58;;;;;;;20.10;7.30;;;;;;;;;;5117873;27;20429;-68
2021/08/14 04:15:24;;;;;;;22.88;6.72;;;;;;;;;;5110338;27;20407;-68
2021/08/14 04:17:50;;;;;;;21.90;7.28;;;;;;;;;;5116047;27;20452;-69
2021/08/14 04:20:16;;;;;;;18.35;6.60;;;;;;;;;;5107574;27;20460;-69
2021/08/14 04:22:42;;;;;;;22.52;6.65;;;;;;;;;;5111655;27;20111;-69
2021/08/14 04:25:09;;;;;;;18.60;6.97;;;;;;;;;;5114133;27;20549;-69
2021/08/14 04:27:35;;;;;;;20.38;6.55;;;;;;;;;;5113821;27;20043;-69
2021/08/14 04:30:02;;;;;;;21.42;6.70;;;;;;;;;;5113843;27;20105;-69
2021/08/14 04:32:32;;;;;;;19.98;6.63;;;;;;;;;;5104697;27;20031;-68
2021/08/14 04:34:58;;;;;;;16.92;6.85;;;;;;;;;;5119126;27;20039;-68
2021/08/14 04:37:24;;;;;;;17.50;6.53;;;;;;;;;;5107582;27;20043;-68
2021/08/14 04:39:50;;;;;;;19.85;7.40;;;;;;;;;;5113895;27;20031;-68
2021/08/14 04:42:16;;;;;;;18.40;6.80;;;;;;;;;;5077247;28;20047;-68
2021/08/14 04:44:43;;;;;;;17.30;6.45;;;;;;;;;;5116276;27;20067;-68
2021/08/14 04:47:09;;;;;;;15.07;6.80;;;;;;;;;;5109073;27;20092;-68
2021/08/14 04:49:36;;;;;;;19.10;6.95;;;;;;;;;;5113657;27;20035;-68
2021/08/14 04:52:02;;;;;;;17.05;6.22;;;;;;;;;;5110348;27;20066;-68
2021/08/14 04:54:28;;;;;;;19.65;6.40;;;;;;;;;;5115895;27;20087;-68
2021/08/14 04:56:54;;;;;;;18.17;7.07;;;;;;;;;;5086662;27;20131;-68
2021/08/14 04:59:21;;;;;;;19.70;7.40;;;;;;;;;;5113860;27;20345;-68
2021/08/14 05:01:47;;;;;;;23.33;6.95;;;;;;;;;;5111204;27;20494;-68
2021/08/14 05:04:13;;;;;;;22.17;7.43;;;;;;;;;;5115971;27;20054;-68
2021/08/14 05:06:40;;;;;;;21.45;7.40;;;;;;;;;;5081827;27;20048;-69
2021/08/14 05:09:07;;;;;;;26.08;7.13;;;;;;;;;;5112029;27;20126;-68
2021/08/14 05:11:34;;;;;;;19.63;6.80;;;;;;;;;;5119424;27;20044;-68
2021/08/14 05:14:00;;;;;;;22.42;6.70;;;;;;;;;;5105455;27;20498;-68
2021/08/14 05:16:26;;;;;;;21.30;7.53;;;;;;;;;;5112043;27;20134;-69
2021/08/14 05:18:52;;;;;;;20.10;7.03;;;;;;;;;;5110689;27;20036;-69
2021/08/14 05:21:19;;;;;;;21.95;7.75;;;;;;;;;;5116476;27;20077;-69
2021/08/14 05:23:45;;;;;;;21.67;7.63;;;;;;;;;;5106917;27;20047;-69
2021/08/14 05:26:11;;;;;;;24.05;7.15;;;;;;;;;;5112702;27;20396;-69
2021/08/14 05:28:38;;;;;;;22.55;8.27;;;;;;;;;;5112115;27;20032;-69
2021/08/14 05:31:04;;;;;;;24.80;8.13;;;;;;;;;;5116072;27;20454;-69
2021/08/14 05:33:31;;;;;;;24.35;7.97;;;;;;;;;;5098945;27;20085;-69
2021/08/14 05:35:58;;;;;;;25.33;7.40;;;;;;;;;;5115938;27;20035;-69
2021/08/14 05:38:24;;;;;;;22.35;6.78;;;;;;;;;;5110927;27;20051;-69
2021/08/14 05:40:50;;;;;;;17.98;6.90;;;;;;;;;;5109260;27;20167;-69
2021/08/14 05:43:17;;;;;;;24.48;7.63;;;;;;;;;;5106286;27;20691;-69
2021/08/14 05:45:43;;;;;;;22.73;7.57;;;;;;;;;;5119440;27;20050;-69
2021/08/14 05:48:10;;;;;;;23.63;7.53;;;;;;;;;;5112354;27;20411;-69
2021/08/14 05:50:36;;;;;;;20.23;7.43;;;;;;;;;;5107607;27;20535;-69
2021/08/14 05:53:02;;;;;;;17.58;7.38;;;;;;;;;;5112804;27;20721;-69
2021/08/14 05:55:29;;;;;;;23.30;7.80;;;;;;;;;;5108917;27;20036;-69
2021/08/14 05:57:56;;;;;;;21.25;7.53;;;;;;;;;;5115434;27;20089;-69
2021/08/14 06:00:22;;;;;;;21.88;7.68;;;;;;;;;;5105828;27;20039;-69
2021/08/14 06:02:49;;;;;;;25.25;8.10;;;;;;;;;;5117716;27;20038;-69
2021/08/14 06:05:15;;;;;;;26.23;7.53;;;;;;;;;;5109595;27;20377;-69
2021/08/14 06:07:43;;;;;;;24.88;6.95;;;;;;;;;;5111391;27;20064;-69
2021/08/14 06:10:09;;;;;;;20.92;7.80;;;;;;;;;;5105889;27;20517;-69
2021/08/14 06:12:35;;;;;;;20.20;7.13;;;;;;;;;;5112788;27;20338;-69
2021/08/14 06:15:02;;;;;;;23.33;7.63;;;;;;;;;;5105169;28;20031;-69
2021/08/14 06:17:28;;;;;;;23.90;7.60;;;;;;;;;;5115644;27;20425;-69
2021/08/14 06:19:54;;;;;;;23.50;7.72;;;;;;;;;;5106111;27;20042;-69
2021/08/14 06:22:20;;;;;;;26.77;8.77;;;;;;;;;;5114771;27;20108;-69
2021/08/14 06:24:46;;;;;;;27.88;8.02;;;;;;;;;;5105169;27;20100;-69
2021/08/14 06:27:12;;;;;;;22.73;7.53;;;;;;;;;;5106644;27;20031;-69
2021/08/14 06:29:39;;;;;;;25.25;7.45;;;;;;;;;;5114714;28;20059;-69
2021/08/14 06:32:05;;;;;;;21.67;8.00;;;;;;;;;;5112166;28;20038;-69
2021/08/14 06:34:31;;;;;;;24.40;8.25;;;;;;;;;;5109710;28;20035;-69
2021/08/14 06:36:57;;;;;;;22.60;7.65;;;;;;;;;;5107918;28;20031;-69
2021/08/14 06:39:23;;;;;;;24.33;7.90;;;;;;;;;;5118118;28;20394;-69
2021/08/14 06:41:51;;;;;;;25.40;7.82;;;;;;;;;;5108531;28;20043;-69
2021/08/14 06:44:17;;;;;;;19.08;6.97;;;;;;;;;;5109276;28;20476;-69
2021/08/14 06:46:43;;;;;;;22.52;8.02;;;;;;;;;;5104234;28;20354;-69
2021/08/14 06:49:09;;;;;;;22.15;7.78;;;;;;;;;;5117936;28;20110;-69
2021/08/14 06:51:38;;;;;;;25.15;8.77;;;;;;;;;;5106623;27;20118;-69
2021/08/14 06:54:04;;;;;;;23.05;7.68;;;;;;;;;;5113988;27;20411;-69
2021/08/14 06:56:35;;;;;;;26.70;8.57;;;;;;;;;;5110991;27;20028;-69
2021/08/14 06:59:01;;;;;;;25.25;8.00;;;;;;;;;;5120241;27;20039;-69
2021/08/14 07:01:27;;;;;;;25.80;8.18;;;;;;;;;;5101631;27;20035;-69
2021/08/14 07:03:54;;;;;;;22.30;7.82;;;;;;;;;;5114992;27;20035;-69
2021/08/14 07:06:21;;;;;;;20.35;7.97;;;;;;;;;;5117212;27;20039;-69
2021/08/14 07:08:47;;;;;;;21.70;8.43;;;;;;;;;;5113643;27;20052;-69
2021/08/14 07:11:14;;;;;;;25.88;8.02;;;;;;;;;;5115900;27;20115;-69
2021/08/14 07:13:40;;;;;;;23.33;7.82;;;;;;;;;;5094259;27;20138;-69
2021/08/14 07:16:06;;;;;;;22.10;8.25;;;;;;;;;;5118113;27;20039;-69
2021/08/14 07:18:32;;;;;;;29.08;8.48;;;;;;;;;;5112055;27;20130;-69
2021/08/14 07:20:59;;;;;;;27.38;8.27;;;;;;;;;;5116189;27;20042;-69
2021/08/14 07:23:25;;;;;;;22.02;7.97;;;;;;;;;;5094023;27;20050;-69
2021/08/14 07:25:51;;;;;;;22.85;7.63;;;;;;;;;;5117053;27;20039;-70
2021/08/14 07:28:18;;;;;;;19.80;8.20;;;;;;;;;;5106718;27;20456;-70
2021/08/14 07:30:45;;;;;;;21.88;7.13;;;;;;;;;;5117407;27;20036;-70
2021/08/14 07:33:11;;;;;;;19.67;6.88;;;;;;;;;;5108629;27;20074;-70
2021/08/14 07:35:37;;;;;;;22.52;6.68;;;;;;;;;;5117733;27;20057;-70
2021/08/14 07:38:03;;;;;;;24.10;7.47;;;;;;;;;;5106070;27;20106;-70
2021/08/14 07:40:29;;;;;;;18.48;7.10;;;;;;;;;;5121590;27;20036;-70
2021/08/14 07:42:57;;;;;;;19.58;7.20;;;;;;;;;;5100754;27;20146;-70
2021/08/14 07:45:23;;;;;;;24.90;6.90;;;;;;;;;;5111794;27;20048;-70
2021/08/14 07:47:50;;;;;;;19.33;6.40;;;;;;;;;;5114920;27;20220;-70
2021/08/14 07:50:18;;;;;;;20.20;6.60;;;;;;;;;;5115648;27;20467;-70
2021/08/14 07:52:44;;;;;;;23.35;6.45;;;;;;;;;;5114490;27;20119;-70
2021/08/14 07:55:11;;;;;;;14.20;5.60;;;;;;;;;;5104016;27;20035;-70
2021/08/14 07:57:40;;;;;;;18.13;6.20;;;;;;;;;;5117889;27;20064;-70
2021/08/14 08:00:08;;;;;;;21.48;6.35;;;;;;;;;;5112096;27;20472;-70
2021/08/14 08:02:34;;;;;;;20.20;6.55;;;;;;;;;;5115681;27;20035;-70
2021/08/14 08:05:00;;;;;;;16.65;5.88;;;;;;;;;;5103704;27;20031;-70
2021/08/14 08:07:26;;;;;;;18.65;5.35;;;;;;;;;;5116939;27;20595;-70
2021/08/14 08:09:53;;;;;;;16.27;5.43;;;;;;;;;;5112915;27;20047;-70
2021/08/14 08:12:19;;;;;;;20.23;5.60;;;;;;;;;;5115838;27;20035;-70
2021/08/14 08:14:45;;;;;;;16.45;5.72;;;;;;;;;;5108783;27;20039;-70
2021/08/14 08:17:11;;;;;;;15.73;5.80;;;;;;;;;;5118234;27;21411;-70
2021/08/14 08:19:37;;;;;;;16.23;5.38;;;;;;;;;;5112384;27;20043;-70
2021/08/14 08:22:03;;;;;;;15.52;4.63;;;;;;;;;;5086732;28;20048;-70
2021/08/14 08:24:30;;;;;;;13.05;5.35;;;;;;;;;;5116595;27;20130;-70
2021/08/14 08:26:56;;;;;;;17.25;5.05;;;;;;;;;;5117723;27;20043;-70
2021/08/14 08:29:22;;;;;;;11.50;3.85;;;;;;;;;;5112202;27;20036;-70
2021/08/14 08:31:49;;;;;;;11.55;4.38;;;;;;;;;;5103869;27;20059;-70
2021/08/14 08:34:15;;;;;;;14.85;4.25;;;;;;;;;;5118662;27;20044;-70
2021/08/14 08:36:41;;;;;;;12.48;4.57;;;;;;;;;;5095176;27;20051;-70
2021/08/14 08:39:08;;;;;;;11.70;4.22;;;;;;;;;;5110610;27;20035;-70
2021/08/14 08:41:34;;;;;;;13.35;3.92;;;;;;;;;;5108760;27;20063;-70
2021/08/14 08:44:00;;;;;;;12.38;3.92;;;;;;;;;;5117421;27;20086;-70
2021/08/14 08:46:27;;;;;;;12.52;3.67;;;;;;;;;;5105726;27;20092;-71
2021/08/14 08:48:54;;;;;;;9.68;3.58;;;;;;;;;;5113940;27;20028;-71
2021/08/14 08:51:24;;;;;;;10.63;3.67;;;;;;;;;;5114498;27;20471;-71
2021/08/14 08:53:50;;;;;;;11.07;3.40;;;;;;;;;;5115305;27;20031;-71
2021/08/14 08:56:16;;;;;;;11.38;3.92;;;;;;;;;;5100622;27;20147;-71
2021/08/14 08:58:42;;;;;;;10.80;3.72;;;;;;;;;;5113569;27;20055;-71
2021/08/14 09:01:08;;;;;;;10.10;3.47;;;;;;;;;;5110346;27;20407;-71
2021/08/14 09:03:34;;;;;;;10.63;3.72;;;;;;;;;;5116022;27;20043;-71
2021/08/14 09:06:01;;;;;;;12.63;3.92;;;;;;;;;;5101160;27;20440;-71
2021/08/14 09:08:27;;;;;;;11.68;3.80;;;;;;;;;;5113222;27;20054;-71
2021/08/14 09:11:13;;;;;;;13.70;4.60;;;;;;;;;;5116590;27;20498;-71
2021/08/14 09:13:40;;;;;;;15.38;4.63;;;;;;;;;;5117822;27;20031;-71
2021/08/14 09:16:23;;;;;;;11.25;4.20;;;;;;;;;;5112069;27;20054;-71
2021/08/14 09:18:53;;;;;;;12.53;4.30;;;;;;;;;;5110999;27;20130;-71
2021/08/14 09:21:29;;;;;;;14.02;4.32;;;;;;;;;;5116004;27;20059;-71
2021/08/14 09:23:55;;;;;;;11.43;4.10;;;;;;;;;;5111441;27;20063;-71
2021/08/14 09:26:21;;;;;;;11.70;4.45;;;;;;;;;;5111490;27;20039;-71
2021/08/14 09:28:47;;;;;;;12.23;3.78;;;;;;;;;;5107953;27;20028;-71
2021/08/14 09:31:14;;;;;;;9.52;3.75;;;;;;;;;;5115850;27;20110;-71
2021/08/14 09:33:40;;;;;;;10.85;4.18;;;;;;;;;;5104182;27;20444;-71
2021/08/14 09:36:07;;;;;;;11.77;3.97;;;;;;;;;;5111034;27;20411;-71
2021/08/14 09:38:50;;;;;;;11.00;3.65;;;;;;;;;;5098407;27;20052;-71
2021/08/14 09:41:16;;;;;;;13.52;4.28;;;;;;;;;;5119566;27;20138;-71
2021/08/14 09:43:43;;;;;;;12.82;4.30;;;;;;;;;;5105500;27;20028;-71
2021/08/14 09:46:09;;;;;;;13.10;3.97;;;;;;;;;;5105087;27;20111;-71
2021/08/14 09:48:35;;;;;;;11.38;4.00;;;;;;;;;;5108653;27;20043;-71
2021/08/14 09:51:01;;;;;;;15.20;4.78;;;;;;;;;;5116083;27;20171;-70
2021/08/14 09:53:29;;;;;;;13.35;4.55;;;;;;;;;;5103413;27;20034;-70
2021/08/14 09:56:08;;;;;;;13.23;4.75;;;;;;;;;;5113292;27;20035;-70
2021/08/14 09:58:36;;;;;;;12.43;4.15;;;;;;;;;;5105328;27;20071;-70
2021/08/14 10:01:03;;;;;;;12.77;4.80;;;;;;;;;;5117763;27;20117;-69
2021/08/14 10:03:30;;;;;;;15.57;4.93;;;;;;;;;;5109923;27;20351;-69
2021/08/14 10:05:56;;;;;;;13.93;4.43;;;;;;;;;;5081104;28;20054;-69
2021/08/14 10:08:22;;;;;;;12.40;4.38;;;;;;;;;;5109996;27;20123;-69
2021/08/14 10:10:49;;;;;;;11.10;4.43;;;;;;;;;;5114936;27;20050;-69
2021/08/14 10:13:18;;;;;;;13.90;4.53;;;;;;;;;;5112575;27;20039;-69
2021/08/14 10:15:45;;;;;;;14.13;5.00;;;;;;;;;;5106583;27;20458;-69
2021/08/14 10:18:11;;;;;;;15.35;4.75;;;;;;;;;;5119587;27;20078;-70
2021/08/14 10:20:38;;;;;;;13.98;5.10;;;;;;;;;;5104340;27;20081;-69
2021/08/14 10:23:05;;;;;;;14.30;4.70;;;;;;;;;;5107423;27;20454;-69
2021/08/14 10:25:32;;;;;;;13.27;4.60;;;;;;;;;;5107898;27;20032;-69
2021/08/14 10:28:03;;;;;;;11.80;4.60;;;;;;;;;;5116194;27;20035;-69
2021/08/14 10:30:37;;;;;;;14.13;4.55;;;;;;;;;;5107674;28;20031;-69
2021/08/14 10:33:03;;;;;;;12.35;4.47;;;;;;;;;;5105510;28;20042;-69
2021/08/14 10:35:31;;;;;;;16.80;5.07;;;;;;;;;;5111840;28;20031;-69
2021/08/14 10:37:57;;;;;;;13.80;4.32;;;;;;;;;;5110367;28;20103;-69
2021/08/14 10:40:24;;;;;;;16.80;5.28;;;;;;;;;;5105710;28;20065;-69
2021/08/14 10:42:52;;;;;;;15.85;5.03;;;;;;;;;;5116018;28;20032;-69
2021/08/14 10:45:20;;;;;;;13.48;4.63;;;;;;;;;;5108355;28;20040;-69
2021/08/14 10:47:47;;;;;;;14.43;4.35;;;;;;;;;;5112296;28;20512;-70
2021/08/14 10:50:34;;;;;;;17.63;5.20;;;;;;;;;;5104128;28;20039;-70
2021/08/14 10:53:17;;;;;;;14.07;5.05;;;;;;;;;;5108582;28;20036;-70
2021/08/14 10:55:43;;;;;;;13.43;4.93;;;;;;;;;;5108979;28;20645;-70
2021/08/14 10:58:30;;;;;;;14.63;5.35;;;;;;;;;;5115530;28;20440;-70
2021/08/14 11:01:05;;;;;;;12.02;5.00;;;;;;;;;;5107747;28;20049;-70
2021/08/14 11:03:35;;;;;;;15.95;5.78;;;;;;;;;;5112102;28;20036;-69
2021/08/14 11:06:20;;;;;;;16.85;5.57;;;;;;;;;;5098736;28;20119;-70
2021/08/14 11:08:46;;;;;;;15.15;5.50;;;;;;;;;;5114561;28;20052;-70
2021/08/14 11:11:31;;;;;;;16.35;5.78;;;;;;;;;;5104028;28;20051;-70
2021/08/14 11:14:08;;;;;;;14.98;5.45;;;;;;;;;;5110321;28;20051;-70
2021/08/14 11:16:52;;;;;;;14.60;5.78;;;;;;;;;;5100694;28;20199;-70
2021/08/14 11:19:37;;;;;;;15.27;6.20;;;;;;;;;;5115534;28;20031;-70
2021/08/14 11:22:35;;;;;;;16.67;6.43;;;;;;;;;;5111456;28;20328;-70
2021/08/14 11:25:06;;;;;;;16.23;6.32;;;;;;;;;;5078680;28;20061;-70
2021/08/14 11:27:33;;;;;;;15.45;6.72;;;;;;;;;;5098231;28;20138;-70
2021/08/14 11:30:02;;;;;;;16.70;6.32;;;;;;;;;;5112896;28;20537;-70
2021/08/14 11:32:29;;;;;;;14.70;6.38;;;;;;;;;;5105397;28;20480;-70
2021/08/14 11:34:55;;;;;;;14.13;6.40;;;;;;;;;;5115281;28;20039;-70
2021/08/14 11:37:22;;;;;;;20.00;7.28;;;;;;;;;;5107535;27;20032;-70
2021/08/14 11:39:54;;;;;;;19.17;7.85;;;;;;;;;;5118006;27;20073;-70
2021/08/14 11:42:22;;;;;;;16.73;6.90;;;;;;;;;;5115242;27;20154;-70
2021/08/14 11:44:52;;;;;;;21.40;8.02;;;;;;;;;;5113530;27;20104;-70
2021/08/14 11:47:19;;;;;;;17.02;6.95;;;;;;;;;;5107349;27;20445;-70
2021/08/14 11:49:58;;;;;;;15.77;6.55;;;;;;;;;;5114502;27;20059;-70
2021/08/14 11:52:25;;;;;;;14.50;6.93;;;;;;;;;;5109656;27;20152;-70
2021/08/14 11:54:55;;;;;;;21.00;7.47;;;;;;;;;;5094961;27;20043;-70
2021/08/14 11:57:26;;;;;;;19.73;7.80;;;;;;;;;;5110208;27;20085;-70
2021/08/14 11:59:52;;;;;;;19.00;8.13;;;;;;;;;;5082557;27;20440;-70
2021/08/14 12:02:21;;;;;;;18.95;7.88;;;;;;;;;;5120481;27;20040;-70
2021/08/14 12:04:48;;;;;;;17.73;8.05;;;;;;;;;;5105571;27;20039;-70
2021/08/14 12:07:14;;;;;;;26.55;8.88;;;;;;;;;;5112468;27;20093;-70
2021/08/14 12:09:40;;;;;;;16.02;6.68;;;;;;;;;;5110354;27;20063;-70
2021/08/14 12:12:06;;;;;;;15.43;6.45;;;;;;;;;;5117246;27;20490;-70
2021/08/14 12:14:41;;;;;;;17.70;6.20;;;;;;;;;;5101184;27;20053;-70
2021/08/14 12:17:07;;;;;;;18.48;7.20;;;;;;;;;;5108389;27;20422;-70
2021/08/14 12:19:34;;;;;;;17.80;8.10;;;;;;;;;;5109724;27;20045;-70
2021/08/14 12:22:11;;;;;;;17.67;6.78;;;;;;;;;;5114368;27;20042;-70
2021/08/14 12:24:38;;;;;;;22.98;7.72;;;;;;;;;;5100540;27;20118;-70
2021/08/14 12:27:21;;;;;;;17.13;6.90;;;;;;;;;;5118502;27;20053;-70
2021/08/14 12:29:47;;;;;;;14.90;6.45;;;;;;;;;;5092862;27;20040;-70
2021/08/14 12:32:13;;;;;;;16.27;6.72;;;;;;;;;;5115265;27;20039;-70
2021/08/14 12:34:41;;;;;;;18.95;7.65;;;;;;;;;;5107969;27;20123;-70
2021/08/14 12:37:14;;;;;;;18.50;6.68;;;;;;;;;;5099906;28;20051;-70
2021/08/14 12:39:57;;;;;;;14.43;6.82;;;;;;;;;;5110865;27;20039;-70
2021/08/14 12:42:31;;;;;;;17.92;6.70;;;;;;;;;;5118545;27;20043;-70
2021/08/14 12:44:58;;;;;;;13.50;5.22;;;;;;;;;;5106612;27;20110;-70
2021/08/14 12:47:25;;;;;;;10.18;4.35;;;;;;;;;;5112572;27;20042;-70
2021/08/14 12:50:10;;;;;;;10.07;4.43;;;;;;;;;;5113331;27;20428;-70
2021/08/14 12:52:36;;;;;;;11.68;4.78;;;;;;;;;;5113826;27;20073;-70
2021/08/14 12:55:02;;;;;;;10.73;5.13;;;;;;;;;;5107421;27;20131;-70
2021/08/14 12:57:28;;;;;;;12.02;4.00;;;;;;;;;;5084323;28;20090;-70
2021/08/14 12:59:55;;;;;;;12.27;5.00;;;;;;;;;;5114912;27;20035;-70
2021/08/14 13:02:21;;;;;;;10.68;5.00;;;;;;;;;;5109413;27;20444;-70
2021/08/14 13:04:47;;;;;;;14.38;5.38;;;;;;;;;;5117326;27;20113;-70
2021/08/14 13:07:13;;;;;;;13.68;5.57;;;;;;;;;;5107754;27;20043;-70
2021/08/14 13:09:39;;;;;;;13.65;5.22;;;;;;;;;;5119955;27;20452;-70
2021/08/14 13:12:06;;;;;;;9.68;4.88;;;;;;;;;;5106800;27;20085;-70
2021/08/14 13:14:32;;;;;;;15.30;5.68;;;;;;;;;;5082273;28;20060;-70
2021/08/14 13:16:58;;;;;;;10.73;4.78;;;;;;;;;;5107007;27;20109;-70
2021/08/14 13:19:25;;;;;;;8.40;3.35;;;;;;;;;;5114929;27;20060;-70
2021/08/14 13:21:52;;;;;;;9.52;3.63;;;;;;;;;;5109513;27;20032;-70
2021/08/14 13:24:19;;;;;;;9.48;3.20;;;;;;;;;;5111634;27;20483;-70
2021/08/14 13:26:47;;;;;;;7.60;3.22;;;;;;;;;;5112175;27;20043;-70
2021/08/14 13:29:14;;;;;;;7.53;3.15;;;;;;;;;;5112941;27;20047;-70
2021/08/14 13:31:41;;;;;;;4.80;2.90;;;;;;;;;;5104112;27;20031;-70
2021/08/14 13:34:08;;;;;;;9.63;3.50;;;;;;;;;;5114832;27;20450;-70
2021/08/14 13:36:34;;;;;;;9.70;3.30;;;;;;;;;;5113677;27;20036;-70
2021/08/14 13:39:01;;;;;;;6.63;3.00;;;;;;;;;;5110639;27;20110;-70
2021/08/14 13:41:27;;;;;;;8.60;3.30;;;;;;;;;;5112699;27;20317;-70
2021/08/14 13:43:54;;;;;;;7.40;3.30;;;;;;;;;;5109619;27;20031;-70
2021/08/14 13:46:20;;;;;;;9.20;3.75;;;;;;;;;;5094254;27;20050;-70
2021/08/14 13:48:46;;;;;;;9.25;3.63;;;;;;;;;;5105924;27;20043;-70
2021/08/14 13:51:12;;;;;;;6.35;3.00;;;;;;;;;;5113642;27;20487;-70
2021/08/14 13:53:38;;;;;;;9.13;3.50;;;;;;;;;;5110949;27;20046;-70
2021/08/14 13:56:05;;;;;;;7.55;3.35;;;;;;;;;;5118295;27;20039;-70
2021/08/14 13:58:31;;;;;;;10.82;4.05;;;;;;;;;;5105638;27;20051;-70
2021/08/14 14:00:58;;;;;;;9.27;4.07;;;;;;;;;;5112457;27;20448;-70
2021/08/14 14:03:25;;;;;;;8.63;3.63;;;;;;;;;;5111020;27;20040;-70
2021/08/14 14:05:51;;;;;;;10.95;3.90;;;;;;;;;;5115249;27;20036;-70
2021/08/14 14:08:18;;;;;;;11.27;3.88;;;;;;;;;;5106042;27;20044;-70
2021/08/14 14:10:44;;;;;;;11.68;4.50;;;;;;;;;;5115289;27;20043;-70
2021/08/14 14:13:11;;;;;;;12.07;3.72;;;;;;;;;;5097557;27;20039;-70
2021/08/14 14:15:38;;;;;;;7.45;3.40;;;;;;;;;;5113035;27;20410;-70
2021/08/14 14:18:04;;;;;;;11.63;3.88;;;;;;;;;;5110449;27;20514;-70
2021/08/14 14:20:30;;;;;;;9.90;3.83;;;;;;;;;;5116494;27;20027;-70
2021/08/14 14:22:56;;;;;;;9.68;3.83;;;;;;;;;;5108845;27;20054;-70
2021/08/14 14:25:23;;;;;;;9.98;3.70;;;;;;;;;;5103557;27;20498;-70
2021/08/14 14:27:49;;;;;;;10.70;4.38;;;;;;;;;;5118352;27;20071;-70
2021/08/14 14:30:15;;;;;;;7.90;3.78;;;;;;;;;;5079416;28;20066;-70
2021/08/14 14:32:42;;;;;;;9.63;3.97;;;;;;;;;;5111802;28;20053;-70